Terminal Aerodrome Forecast
Issued by NWS

Home | Current Version | Previous Version | Text Only | Print | Product List | Glossary On
Versions: 1 2 3 4 5 6 7 8 9 10 11 12 13 14 15 16 17 18 19 20 21 22 23 24 25 26 27 28 29 30 31 32 33 34 35 36 37 38 39 40 41 42 43 44
427
FTAK31 PANC 131131
TAFADQ
TAF
PADQ 131131Z 1312/1412 10010KT 6SM -RA BKN025 OVC035
     FM131600 07015KT 5SM -RA BR OVC015
     FM132000 07015G25KT 3SM -RA BR BKN008 OVC015
     FM140400 01011KT 5SM -SHRA BKN008 OVC015
     FM141100 22010KT 6SM -SHRA BKN008 OVC015=

USA.gov is the U.S. government's official web portal to all federal, state and local government web resources and services.